Time;durP1;ratioP1;P1;durP2;ratioP2;P2;SDS_P1;SDS_P2;PMS_P1;PMS_P2;Temp;Humidity;BMP_temperature;BMP_pressure;BME280_temperature;BME280_humidity;BME280_pressure;Samples;Min_cycle;Max_cycle;Signal;HPM_P1;HPM_P2
2021/11/15 12:45:08;;;;;;;11.70;5.80;;;;;;;8.18;82.18;99588.91;5106325;28;20532;-82
2021/11/15 12:47:38;;;;;;;10.63;5.47;;;;;;;8.69;79.87;99598.22;5105476;28;39885;-81
2021/11/15 12:50:12;;;;;;;10.50;5.73;;;;;;;9.23;78.16;99605.50;5089421;28;40448;-80
2021/11/15 12:52:40;;;;;;;11.53;7.00;;;;;;;9.49;76.19;99590.25;5085023;28;41822;-78
2021/11/15 12:55:14;;;;;;;10.10;5.57;;;;;;;9.88;75.29;99608.69;5084435;28;42617;-78
2021/11/15 12:57:44;;;;;;;10.70;5.50;;;;;;;10.04;74.40;99591.97;5082215;28;39081;-83
2021/11/15 13:00:32;;;;;;;11.50;6.47;;;;;;;10.32;73.09;99599.47;5088915;28;42204;-81
2021/11/15 13:03:02;;;;;;;11.23;5.83;;;;;;;10.48;72.24;99601.34;5087725;28;41952;-79
2021/11/15 13:05:33;;;;;;;10.73;6.23;;;;;;;10.48;71.05;99593.41;5105572;28;42572;-79
2021/11/15 13:08:07;;;;;;;9.93;6.00;;;;;;;10.60;71.00;99598.09;5105645;28;40172;-80
2021/11/15 13:10:37;;;;;;;11.33;6.00;;;;;;;10.65;70.90;99604.00;5086557;28;42809;-79
2021/11/15 13:13:06;;;;;;;11.40;5.47;;;;;;;10.68;70.41;99595.88;5084266;28;41685;-85
2021/11/15 13:15:35;;;;;;;10.20;5.70;;;;;;;10.62;70.16;99590.94;5086802;28;42091;-81
2021/11/15 13:18:02;;;;;;;10.67;5.03;;;;;;;10.73;69.89;99601.81;5088050;28;40470;-82
2021/11/15 13:20:30;;;;;;;11.90;5.87;;;;;;;10.61;69.82;99578.63;5086745;28;42170;-82
2021/11/15 13:22:58;;;;;;;13.37;5.87;;;;;;;10.65;69.46;99590.75;5087731;28;41598;-77
2021/11/15 13:25:27;;;;;;;8.23;5.63;;;;;;;10.64;69.21;99594.31;5087180;28;41042;-83
2021/11/15 13:27:55;;;;;;;10.60;4.93;;;;;;;10.59;69.82;99568.09;5104827;28;40763;-82
2021/11/15 13:30:24;;;;;;;10.10;5.40;;;;;;;10.69;69.93;99571.97;5087520;28;41049;-79
2021/11/15 13:32:55;;;;;;;12.30;6.20;;;;;;;10.76;69.58;99577.81;5087977;28;41817;-82
2021/11/15 13:35:24;;;;;;;11.07;6.20;;;;;;;10.83;69.58;99579.22;5087484;28;41085;-86
2021/11/15 13:37:55;;;;;;;7.87;5.50;;;;;;;10.80;69.49;99574.06;5088346;28;39137;-89
2021/11/15 13:40:24;;;;;;;8.07;5.73;;;;;;;10.67;69.18;99557.09;5104058;28;42421;-80
2021/11/15 13:42:51;;;;;;;10.07;5.90;;;;;;;10.68;68.99;99558.81;5103626;28;42870;-84
2021/11/15 13:45:19;;;;;;;10.37;5.93;;;;;;;10.73;69.37;99570.91;5086281;28;40785;-81
2021/11/15 13:47:48;;;;;;;13.00;6.77;;;;;;;10.65;68.92;99558.97;5104149;28;39370;-79
2021/11/15 13:50:17;;;;;;;9.40;5.57;;;;;;;10.65;69.31;99556.31;5086024;28;40997;-81
2021/11/15 13:52:45;;;;;;;9.87;5.57;;;;;;;10.72;69.31;99570.97;5102942;28;42890;-85
2021/11/15 13:55:13;;;;;;;8.50;5.33;;;;;;;10.80;69.50;99566.13;5078301;28;41252;-88
2021/11/15 13:57:40;;;;;;;10.73;7.03;;;;;;;10.75;69.27;99549.63;5070298;28;39363;-87
2021/11/15 14:00:10;;;;;;;11.20;5.90;;;;;;;10.74;69.01;99542.59;5074133;28;41304;-81
2021/11/15 14:02:37;;;;;;;10.30;4.87;;;;;;;10.74;69.22;99540.81;5063394;28;42823;-85
2021/11/15 14:05:06;;;;;;;9.83;5.33;;;;;;;10.68;68.85;99554.38;5088079;28;41340;-83
2021/11/15 14:07:36;;;;;;;8.37;6.27;;;;;;;10.73;69.24;99567.38;5080207;28;39900;-82
2021/11/15 14:10:05;;;;;;;10.93;6.00;;;;;;;10.70;69.10;99567.53;5073667;28;42382;-81
2021/11/15 14:12:32;;;;;;;8.00;5.33;;;;;;;10.62;69.23;99549.41;5067001;28;41814;-85
2021/11/15 14:15:00;;;;;;;11.40;5.23;;;;;;;10.59;69.42;99551.34;5072795;28;41747;-85
2021/11/15 14:17:30;;;;;;;7.37;4.33;;;;;;;10.63;69.44;99555.56;5068997;28;38354;-86
2021/11/15 14:19:58;;;;;;;9.03;5.30;;;;;;;10.68;69.20;99570.25;5073809;28;41801;-87
2021/11/15 14:22:25;;;;;;;9.70;5.20;;;;;;;10.61;69.60;99560.06;5072849;28;43634;-83
2021/11/15 14:24:55;;;;;;;12.30;5.40;;;;;;;10.61;69.46;99560.06;5090392;28;43070;-83
2021/11/15 14:27:22;;;;;;;8.57;5.13;;;;;;;10.68;69.49;99569.41;5072977;28;39071;-85
2021/11/15 14:29:50;;;;;;;11.43;6.27;;;;;;;10.65;69.83;99569.56;5073798;28;42530;-84
2021/11/15 14:32:18;;;;;;;7.00;4.83;;;;;;;10.46;69.74;99539.66;5072495;28;42423;-86
2021/11/15 14:34:46;;;;;;;10.03;4.87;;;;;;;10.50;69.56;99546.53;5074103;28;41405;-81
2021/11/15 14:37:17;;;;;;;10.33;5.63;;;;;;;10.52;69.92;99557.88;5089911;28;40126;-83
2021/11/15 14:39:45;;;;;;;9.97;5.27;;;;;;;10.49;69.90;99558.06;5073756;28;40162;-83
2021/11/15 14:42:14;;;;;;;9.07;5.17;;;;;;;10.53;70.02;99565.75;5073010;28;42659;-87
2021/11/15 14:44:42;;;;;;;9.80;5.17;;;;;;;10.42;70.08;99561.00;5073577;28;41892;-81
2021/11/15 14:47:10;;;;;;;8.90;4.80;;;;;;;10.37;70.08;99552.44;5089569;28;40548;-86
2021/11/15 14:49:39;;;;;;;10.27;6.70;;;;;;;10.31;70.05;99538.63;5073243;28;40804;-83
2021/11/15 14:52:07;;;;;;;10.20;5.40;;;;;;;10.47;70.27;99559.91;5073427;28;41916;-84
2021/11/15 14:54:36;;;;;;;9.97;5.87;;;;;;;10.44;70.20;99559.13;5072567;28;43092;-84
2021/11/15 14:57:05;;;;;;;7.73;4.57;;;;;;;10.35;70.26;99554.31;5089667;28;39222;-81
2021/11/15 14:59:34;;;;;;;11.07;5.53;;;;;;;10.35;70.55;99556.09;5089996;28;41114;-84
2021/11/15 15:02:03;;;;;;;13.00;6.07;;;;;;;10.18;70.45;99542.81;5072562;28;41444;-79
2021/11/15 15:04:32;;;;;;;11.07;5.87;;;;;;;10.22;70.22;99555.84;5072421;28;42758;-80
2021/11/15 15:07:01;;;;;;;13.63;6.10;;;;;;;10.26;69.90;99573.28;5071016;28;39725;-79
2021/11/15 15:09:34;;;;;;;8.63;5.73;;;;;;;10.26;70.28;99575.09;5089943;28;41695;-82
